Weather observations for the past three days for
Galliano, South Lafourche Airport
Metric (Imperial)
Date Time (cdt) Wind (kph) Vis. (km) Weather Sky Cond. Temperature (ºC) Relative Humidity Wind Chill (°C) Heat Index (°C) Pressure Precipitation (cm)
Air Dwpt 6 hour altimeter (cm) sea level (mb) 1 hr 3 hr 6 hr
Max. Min.
06 16:35 S 13 G 30 16.09 NULL NULL 28.2 23.7 77% 32 75.9 0.0
06 16:15 S 20 16.09 NULL NULL 28.1 23 74% 31 75.92 0.0
06 15:55 S 20 G 28 16.09 NULL NULL 28.3 23.1 73% 32 75.95 0.0
06 15:35 S 20 G 31 16.09 NULL NULL 28.5 23 72% 32 75.95 0.0
06 15:15 S 22 16.09 NULL NULL 28.5 23 72% 32 75.97 0.0
06 14:55 S 22 G 28 16.09 NULL NULL 29 23.3 71% 33 76 0.0
06 14:35 S 22 G 31 16.09 NULL NULL 29.1 23.5 72% 33 76 0.0
06 14:15 S 28 G 33 16.09 NULL NULL 28.7 23.2 72% 32 76.05 0.0
06 13:55 S 26 G 35 16.09 NULL NULL 28.9 23 71% 33 76.05 0.0
06 13:35 S 20 16.09 NULL NULL 29.2 23.5 71% 33 76.05 0.0
06 13:15 S 22 G 33 16.09 NULL NULL 29.5 23.1 69% 34 76.07 0.0
06 12:55 S 24 G 31 16.09 NULL NULL 29.6 23.4 29.7 24.5 69% 34 76.07 0.0
06 12:35 S 22 G 30 16.09 NULL NULL 29 23.2 71% 33 76.1 0.0
06 12:15 S 22 G 30 16.09 NULL NULL 28.5 23.1 73% 32 76.07 0.0
06 11:55 S 22 G 30 16.09 NULL NULL 28.6 23.1 72% 32 76.07 0.0
06 11:35 S 22 16.09 NULL NULL 28.8 23.6 74% 33 76.07 0.0
06 11:15 S 20 G 31 16.09 NULL NULL 28.3 24 78% 32 76.05 0.0
06 10:55 S 24 G 31 16.09 NULL NULL 27.3 23.4 79% 30 76.07 0.0
06 10:35 S 22 16.09 NULL NULL 27.5 23.5 79% 31 76.07 0.0
06 10:15 S 24 G 33 16.09 NULL NULL 27.4 23.2 78% 30 76.05 0.0
06 09:55 S 17 G 26 16.09 NULL NULL 27.5 23.4 78% 31 76.05 0.0
06 09:35 S 17 16.09 NULL NULL 27.1 23.5 81% 30 76.02 0.0
06 09:15 S 13 16.09 NULL NULL 26.5 23.3 83% 29 76.02 0.0
06 08:55 SE 7 16.09 NULL NULL 26 23.1 84% 28 76.02 0.0
06 08:35 SE 7 16.09 NULL NULL 25.5 22.9 86% 27 76.02 0.0
06 08:15 SE 9 16.09 NULL NULL 25.1 22.7 87% 26 76.02 0.0
06 07:55 S 9 16.09 NULL NULL 25 22.7 87% 26 76.02 0.0
06 07:35 S 9 16.09 NULL NULL 24.6 22.5 88% 25 76 0.0
06 06:55 S 9 16.09 NULL NULL 24.5 22.3 24.5 23.2 88% 25 75.97 0.0
06 06:35 S 9 16.09 NULL NULL 24.3 22.2 88% 24 75.95 0.0
06 06:15 S 9 16.09 NULL NULL 24.3 22.2 88% 24 75.92 0.0
06 05:55 S 9 16.09 Overcast SCT013 SCT017 OVC026 24.2 22 88% 24 75.92 0.0
06 05:35 SE 9 16.09 Overcast SCT013 OVC017 24.2 22 88% 24 75.92 0.0
06 05:15 S 9 16.09 Overcast OVC013 24.3 22 87% 24 75.92 0.0
06 04:55 SE 7 16.09 Overcast OVC011 24.2 21.8 87% 24 75.92 0.0
06 04:35 S 9 16.09 Overcast OVC011 24.1 21.7 87% 24 75.9 0.0
06 04:15 S 9 16.09 Overcast OVC011 24.1 21.6 86% 24 75.92 0.0
06 03:55 S 9 16.09 Overcast OVC013 24.1 21.5 85% 24 75.92 0.0
06 03:35 S 9 16.09 Overcast OVC013 24 21.5 86% 24 75.9 0.0
06 03:15 S 13 16.09 Overcast OVC010 24 21.5 86% 24 75.9 0.0
06 02:55 S 13 16.09 Overcast OVC012 23.7 21.3 86% 75.9 0.0
06 02:35 S 11 16.09 Overcast BKN012 OVC026 23.6 21 85% 75.9 0.0
06 02:15 SE 11 16.09 Overcast SCT012 OVC026 23.5 21 86% 75.92 0.0
06 01:55 SE 9 16.09 Mostly Cloudy BKN014 23.5 20.6 84% 75.92 0.0
06 01:35 S 13 16.09 Partly Cloudy SCT014 SCT028 23.5 20.5 83% 75.92 0.0
06 01:15 SE 11 16.09 Fair CLR 23.2 20.2 83% 75.95 0.0
06 00:55 SE 15 16.09 Partly Cloudy SCT027 23.3 20.2 24.7 22.4 83% 75.95 0.0
06 00:35 SE 13 16.09 Partly Cloudy SCT013 SCT027 23.5 20.5 83% 75.95 0.0
06 00:15 SE 13 16.09 Overcast OVC013 23.5 20.5 83% 75.97 0.0
05 23:55 SE 11 16.09 Mostly Cloudy BKN013 23.5 20.5 83% 75.97 0.0
05 23:35 SE 9 16.09 Mostly Cloudy BKN013 23.5 20.5 83% 75.97 0.0
05 23:15 SE 15 16.09 Mostly Cloudy BKN013 23.5 20.4 83% 76 0.0
05 22:55 S 15 16.09 Overcast OVC013 23.5 20.3 82% 76 0.0
05 22:35 SE 11 16.09 Overcast OVC013 23.6 20.2 81% 76 0.0
05 22:15 SE 9 16.09 Mostly Cloudy BKN015 BKN019 23.5 20.2 82% 76 0.0
05 21:55 SE 9 16.09 Mostly Cloudy BKN015 BKN019 23.6 20.4 82% 75.97 0.0
05 21:35 SE 11 16.09 Mostly Cloudy BKN015 BKN019 23.5 20.2 82% 75.97 0.0
05 21:15 S 9 16.09 Partly Cloudy SCT017 23.1 19.8 82% 75.97 0.0
05 20:55 S 7 16.09 Partly Cloudy SCT017 23.1 19.6 81% 75.97 0.0
05 20:35 S 7 16.09 Partly Cloudy SCT016 22.8 19.8 83% 75.95 0.0
05 20:15 S 6 16.09 Partly Cloudy SCT016 22.4 19.5 84% 75.95 0.0
05 19:55 S 6 16.09 Fair CLR 22.7 19.5 82% 75.95 0.0
05 19:35 S 7 16.09 Fair CLR 23.2 19.5 80% 75.92 0.0
05 19:15 S 9 16.09 Fair CLR 24.2 19.5 75% 25 75.92 0.0
05 18:55 S 17 16.09 Fair CLR 24.7 19.7 27.3 24.5 74% 26 75.95 0.0
05 18:35 S 13 16.09 Partly Cloudy SCT035 24.8 19.6 73% 26 75.95 0.0
05 18:15 S 17 16.09 Overcast OVC035 25 19.7 73% 26 75.95 0.0
05 17:55 S 17 16.09 Overcast SCT019 OVC035 25 19.7 73% 26 75.95 0.0
05 17:35 S 20 16.09 Overcast SCT019 BKN025 OVC035 25 19.9 73% 26 75.95 0.0
05 17:15 S 11 16.09 Overcast SCT019 OVC025 24.6 20 76% 25 75.95 0.0
05 16:55 S 15 16.09 Mostly Cloudy BKN027 BKN034 25.2 19.4 70% 26 75.97 0.0
05 16:35 S 20 16.09 Mostly Cloudy SCT025 BKN036 26.4 19.6 66% 28 75.97 0.0
05 16:15 S 22 16.09 Partly Cloudy SCT025 SCT036 26.1 19.7 68% 27 75.97 0.0
05 15:55 S 20 16.09 Partly Cloudy SCT023 SCT070 26.6 20 67% 28 75.97 0.0
05 15:35 S 22 G 31 16.09 Partly Cloudy SCT023 26.7 19.8 66% 28 75.97 0.0
05 15:15 S 26 G 33 16.09 Partly Cloudy SCT025 SCT029 26.6 19.6 66% 28 76 0.0
05 14:55 S 19 G 30 16.09 Mostly Cloudy BKN025 27.1 19.5 63% 28 76 0.0
05 14:35 S 19 16.09 Overcast OVC025 26.7 19.6 65% 28 76.02 0.0
05 14:15 S 15 16.09 Overcast OVC023 26 19.5 67% 27 76.02 0.0
05 13:55 S 17 G 28 16.09 Overcast OVC023 26.4 19.7 67% 28 76.05 0.0
05 13:35 S 19 16.09 Overcast OVC023 26 19.5 67% 27 76.05 0.0
05 13:15 S 20 16.09 Overcast OVC023 26.5 19.6 66% 28 76.05 0.0
05 12:55 S 17 16.09 Mostly Cloudy BKN023 26.4 19.6 26.7 17.8 66% 28 76.05 0.0
05 12:35 S 20 G 26 16.09 Partly Cloudy SCT023 26.6 19.4 65% 28 76.07 0.0
05 11:55 S 19 G 26 16.09 Partly Cloudy SCT025 25.7 18.7 65% 27 76.07 0.0
05 11:35 SW 17 16.09 Mostly Cloudy BKN025 26.4 19.1 64% 28 76.07 0.0
05 11:15 S 19 G 28 16.09 Mostly Cloudy BKN025 26.3 18.8 63% 27 76.07 0.0
05 10:55 S 17 16.09 Partly Cloudy SCT025 25.6 18.3 64% 27 76.07 0.0
05 10:35 S 17 16.09 Partly Cloudy SCT025 25.3 18.1 64% 26 76.07 0.0
05 10:15 SW 17 G 28 16.09 Partly Cloudy SCT025 25.4 18.1 64% 26 76.07 0.0
05 09:55 S 22 16.09 Partly Cloudy SCT025 25.1 17.8 64% 26 76.05 0.0
05 09:35 S 22 G 28 16.09 Fair CLR 24.9 17.4 63% 26 76.07 0.0
05 09:15 S 22 16.09 Fair CLR 24.8 17 62% 26 76.07 0.0
05 08:55 S 20 16.09 Fair CLR 24.3 16.9 63% 25 76.05 0.0
05 08:35 S 19 16.09 Fair CLR 23.6 17.1 67% 76.05 0.0
05 08:15 S 13 16.09 Fair CLR 23.1 17.5 71% 76.02 0.0
05 07:35 S 6 16.09 Fair CLR 21.6 18.3 82% 76 0.0
05 07:15 S 6 16.09 Fair CLR 20.1 17.2 84% 76 0.0
05 06:55 S 6 16.09 NULL NULL 17.4 15.8 17.5 14.4 90% 76 0.0
05 06:35 S 6 16.09 NULL NULL 16.7 15 90% 76 0.0
05 06:15 Calm 16.09 NULL NULL 16.7 14.6 88% 75.97 0.0
05 05:55 SE 7 16.09 Partly Cloudy SCT031 16.4 14.9 91% 76 0.0
05 05:35 Calm 16.09 Mostly Cloudy BKN033 15.2 13.7 91% 76 0.0
05 05:15 Calm 16.09 Partly Cloudy SCT033 15.6 14.2 91% 76 0.0
05 04:55 Calm 16.09 Mostly Cloudy BKN033 15.5 13.9 90% 75.97 0.0
05 04:35 Calm 16.09 Fair CLR 14.6 13.2 91% 75.97 0.0
05 04:15 Calm 16.09 Fair CLR 14.6 13.2 91% 76 0.0
05 03:55 Calm 16.09 Fair CLR 14.6 13.1 91% 75.97 0.0
05 03:35 Calm 16.09 Fair CLR 15.3 13.6 90% 76 0.0
05 03:15 Calm 16.09 Fair CLR 16.1 13.6 85% 75.97 0.0
05 02:55 SE 6 16.09 Fair CLR 17.1 14.6 85% 75.97 0.0
05 02:35 SE 6 16.09 Fair CLR 17.2 14.8 86% 75.97 0.0
05 02:15 SE 6 16.09 Fair CLR 14.6 13 90% 76.02 0.0
05 01:55 SE 6 16.09 Fair CLR 14.6 13 90% 76.05 0.0
05 01:35 Calm 16.09 Fair CLR 15.1 13.4 90% 76.07 0.0
05 01:15 Calm 16.09 Fair CLR 15.1 13.3 89% 76.07 0.0
05 00:55 Calm 16.09 Fair CLR 15.3 13.3 21.8 14.5 88% 76.07 0.0
05 00:35 Calm 16.09 Fair CLR 15.1 13.3 89% 76.05 0.0
05 00:15 Calm 16.09 Fair CLR 14.5 12.7 89% 76.05 0.0
04 23:55 Calm 16.09 Fair CLR 16.3 13.5 84% 76.07 0.0
04 23:35 Calm 16.09 Fair CLR 14.7 12.7 88% 76.07 0.0
04 23:15 Calm 16.09 Fair CLR 15 12.5 85% 76.1 0.0
04 22:55 Calm 16.09 Fair CLR 15.4 12.3 82% 76.1 0.0
04 22:35 Calm 16.09 Fair CLR 16.3 12.7 79% 76.1 0.0
04 22:15 SE 6 16.09 Fair CLR 14.6 12.3 86% 76.1 0.0
04 21:55 Calm 16.09 Fair CLR 15.1 12.4 84% 76.12 0.0
04 21:35 Calm 16.09 Fair CLR 16.9 12.1 74% 76.12 0.0
04 21:15 SE 6 16.09 Fair CLR 17.3 12.2 72% 76.1 0.0
04 20:55 Calm 16.09 Fair CLR 16.1 12.4 79% 76.1 0.0
04 20:35 SE 6 16.09 Fair CLR 18 12 68% 76.07 0.0
04 20:15 SE 6 16.09 Fair CLR 18.5 11.9 66% 76.07 0.0
04 19:55 SE 6 16.09 Fair CLR 18.9 11.9 64% 76.12 0.0
04 19:35 SE 6 16.09 Fair CLR 20 11.7 59% 76.12 0.0
04 19:15 SE 6 16.09 Fair CLR 21 11.8 56% 76.12 0.0
04 18:55 S 7 16.09 Fair CLR 21.8 11.6 24.3 21.8 52% 76.12 0.0
04 18:35 S 7 16.09 Fair CLR 22 11.7 52% 76.12 0.0
04 18:15 S 11 16.09 Fair CLR 22.6 10.4 46% 76.15 0.0
04 17:55 S 15 16.09 Fair CLR 23.2 10.4 44% 76.15 0.0
04 17:15 S 19 16.09 Fair CLR 23.5 9.7 42% 76.2 0.0
04 16:55 S 13 16.09 Fair CLR 23.7 10.2 43% 76.17 0.0
04 16:35 S 11 16.09 Fair CLR 23.7 10.1 42% 76.17 0.0
04 16:15 S 20 16.09 Fair CLR 23.7 9.7 41% 76.2 0.0
04 15:55 S 13 16.09 Fair CLR 24.3 10.7 42% 25 76.2 0.0
04 15:35 S 7 16.09 Fair CLR 23.9 9.4 40% 25 76.23 0.0
04 15:15 S 7 16.09 Fair CLR 23.8 9.3 40% 76.25 0.0
04 14:55 SE 11 16.09 Fair CLR 23.9 9.2 39% 25 76.28 0.0
04 14:35 E 13 16.09 Fair CLR 23.8 8.1 37% 76.3 0.0
04 14:15 SE 11 16.09 Fair CLR 23.9 8.1 37% 25 76.3 0.0
04 13:55 S 9 G 15 16.09 Fair CLR 23.7 7.9 36% 76.33 0.0
04 13:35 S 13 16.09 Fair CLR 23.8 7.9 36% 76.38 0.0
04 13:15 SE 13 16.09 Fair CLR 23.8 7.7 36% 76.38 0.0
04 12:55 SE 13 16.09 Fair CLR 23.8 7.6 24.5 10.6 36% 76.35 0.0
04 12:35 S 11 16.09 Fair CLR 24.3 7.1 33% 25 76.38 0.0
04 12:15 SE 13 16.09 Fair CLR 23.6 4.8 30% 76.38 0.0
04 11:55 SE 11 16.09 Fair CLR 23.6 5.6 31% 76.38 0.0
04 11:35 SE 11 16.09 Fair CLR 24 6.1 32% 25 76.4 0.0
04 11:15 SE 13 16.09 Fair CLR 23.5 5.1 30% 76.4 0.0
04 10:55 SE 9 16.09 Fair CLR 23.5 6.5 34% 76.4 0.0
04 10:35 SE 11 16.09 Fair CLR 23.1 7.3 36% 76.4 0.0
04 10:15 E 9 16.09 Fair CLR 22.8 8.4 40% 76.38 0.0
04 09:55 E 6 16.09 Fair CLR 22.6 9.8 44% 76.4 0.0
04 09:35 SE 9 16.09 Fair CLR 22.4 9.9 45% 76.4 0.0
04 09:15 SE 6 16.09 Fair CLR 22.3 11.1 49% 76.4 0.0
04 08:55 Calm 16.09 Fair CLR 21.6 10.8 50% 76.43 0.0
04 08:35 Calm 16.09 Fair CLR 20.7 10.7 53% 76.4 0.0
04 08:15 Calm 16.09 Fair CLR 19.7 12.3 63% 76.4 0.0
04 07:55 Calm 16.09 Fair CLR 18 14.4 80% 76.4 0.0
04 07:35 Calm 16.09 Fair CLR 14.8 12.5 86% 76.38 0.0
04 07:15 Calm 16.09 Fair CLR 12.4 10.9 91% 76.38 0.0
04 06:55 Calm 16.09 Fair CLR 10.5 9.2 11.1 9.2 92% 76.35 0.0
04 06:35 Calm 16.09 Fair CLR 10.1 8.7 91% 76.35 0.0
04 06:15 Calm 16.09 NULL NULL 10.3 8.8 91% 76.35 0.0
04 05:55 Calm 16.09 Fair CLR 10.3 8.9 91% 76.33 0.0
04 05:35 Calm 16.09 Fair CLR 9.8 8.5 92% 76.33 0.0
04 05:15 Calm 16.09 Fair CLR 9.8 8.4 91% 76.35 0.0
04 04:55 Calm 16.09 Fair CLR 10.2 9 92% 76.38 0.0
04 04:35 Calm 16.09 Fair CLR 9.7 8.5 92% 76.38 0.0
04 04:15 Calm 16.09 Fair CLR 9.3 8 92% 76.38 0.0
04 03:55 Calm 16.09 Fair CLR 9.3 7.8 90% 76.38 0.0
04 03:35 Calm 16.09 Fair CLR 9.7 8.3 91% 76.38 0.0
04 03:15 Calm 16.09 Fair CLR 10.2 8.8 91% 76.38 0.0
04 02:55 Calm 16.09 Fair CLR 9.5 8.1 91% 76.35 0.0
04 02:35 Calm 16.09 Fair CLR 9.6 8.2 91% 76.38 0.0
04 02:15 Calm 16.09 Fair CLR 9.8 8.3 90% 76.38 0.0
04 01:55 Calm 16.09 Fair CLR 10 8.7 92% 76.43 0.0
04 01:35 Calm 16.09 Fair CLR 10.4 9 91% 76.43 0.0
04 01:15 Calm 16.09 Fair CLR 10.4 8.6 89% 76.45 0.0
04 00:55 Calm 16.09 Fair CLR 11.3 9 21.5 11 86% 76.45 0.0
04 00:35 Calm 16.09 Fair CLR 11.7 9.3 85% 76.48 0.0
04 00:15 Calm 16.09 Fair CLR 11.7 9.7 88% 76.45 0.0
03 23:55 Calm 16.09 Fair CLR 11.2 9.2 88% 76.48 0.0
03 23:35 Calm 16.09 Fair CLR 11.4 9.4 88% 76.5 0.0
03 23:15 Calm 16.09 Fair CLR 11.5 9.7 89% 76.5 0.0
03 22:55 Calm 16.09 Fair CLR 11.2 9.5 89% 76.5 0.0
03 22:35 Calm 16.09 Fair CLR 11.7 9.5 87% 76.5 0.0
03 22:15 Calm 16.09 Fair CLR 11.8 9.6 87% 76.5 0.0
03 21:55 Calm 16.09 Fair CLR 13.1 9.6 80% 76.5 0.0
03 21:35 Calm 16.09 Fair CLR 13.1 10 82% 76.5 0.0
03 21:15 Calm 16.09 Fair CLR 13.3 9.9 80% 76.48 0.0
03 20:55 Calm 16.09 Fair CLR 14.2 9.9 76% 76.48 0.0
03 20:35 Calm 16.09 Fair CLR 14.1 10.3 78% 76.45 0.0
03 20:15 Calm 16.09 Fair CLR 16.4 9 62% 76.45 0.0
03 19:55 SE 6 16.09 Fair CLR 17.3 8.9 58% 76.45 0.0
03 19:35 SE 6 16.09 Fair CLR 18.5 8.8 53% 76.43 0.0
03 19:15 S 6 16.09 Fair CLR 20.4 7.8 44% 76.45 0.0
03 18:55 Calm 16.09 Fair CLR 21.5 5.9 23.5 21.5 36% 76.43 0.0
03 18:35 E 6 16.09 Fair CLR 22.1 4.7 32% 76.43 0.0
03 18:15 Calm 16.09 Fair CLR 22.5 4.1 30% 76.45 0.0
03 17:55 E 6 16.09 Fair CLR 22.6 3.8 29% 76.45 0.0
03 17:35 Calm 16.09 Fair CLR 23 3.8 29% 76.45 0.0
Date Time (cdt) Wind (kph) Vis. (km) Weather Sky Cond. Air Dwpt Max. Min. Relative Humidity Wind Chill (°C) Heat Index (°C) altimeter (cm) sea level (mb) 1 hr 3 hr 6 hr
6 hour
Temperature (ºC) Pressure Precipitation (cm)